Time;durP1;ratioP1;P1;durP2;ratioP2;P2;SDS_P1;SDS_P2;PMS_P1;PMS_P2;Temp;Humidity;BMP_temperature;BMP_pressure;BME280_temperature;BME280_humidity;BME280_pressure;Samples;Min_cycle;Max_cycle;Signal;HPM_P1;HPM_P2
2023/12/09 00:01:05;;;;;;;25.90;9.17;;;7.80;99.90;;;;;;5035128;28;20037;-79
2023/12/09 00:03:30;;;;;;;24.43;8.30;;;7.80;99.90;;;;;;5053364;28;20482;-80
2023/12/09 00:05:56;;;;;;;22.37;7.47;;;7.80;99.90;;;;;;5053227;28;20045;-80
2023/12/09 00:08:21;;;;;;;31.93;8.83;;;7.80;99.90;;;;;;5053071;28;20120;-79
2023/12/09 00:10:47;;;;;;;19.77;8.07;;;7.80;99.90;;;;;;5053215;28;20464;-79
2023/12/09 00:13:13;;;;;;;24.23;7.10;;;7.80;99.90;;;;;;5053205;28;20036;-79
2023/12/09 00:15:38;;;;;;;28.00;7.93;;;7.80;99.90;;;;;;5035108;28;20131;-79
2023/12/09 00:18:05;;;;;;;24.80;7.57;;;7.90;99.90;;;;;;5035623;28;20111;-80
2023/12/09 00:20:31;;;;;;;31.30;8.20;;;7.90;99.90;;;;;;5035186;28;20033;-79
2023/12/09 00:22:57;;;;;;;29.10;7.70;;;7.90;99.90;;;;;;5035060;28;20037;-80
2023/12/09 00:25:22;;;;;;;25.50;9.00;;;7.90;99.90;;;;;;5035297;28;20033;-80
2023/12/09 00:27:48;;;;;;;29.07;7.40;;;7.90;99.90;;;;;;5053093;28;20029;-79
2023/12/09 00:30:14;;;;;;;33.47;8.20;;;7.90;99.90;;;;;;5052799;28;20037;-79
2023/12/09 00:32:39;;;;;;;27.47;8.37;;;7.90;99.90;;;;;;5032683;28;20485;-79
2023/12/09 00:35:05;;;;;;;32.10;8.23;;;7.90;99.90;;;;;;5053011;28;20120;-79
2023/12/09 00:37:31;;;;;;;31.67;7.63;;;7.90;99.90;;;;;;5053102;28;20103;-79
2023/12/09 00:39:57;;;;;;;36.27;9.17;;;7.90;99.90;;;;;;5035070;28;20036;-79
2023/12/09 00:42:22;;;;;;;29.53;8.30;;;7.90;99.90;;;;;;5052558;28;20028;-80
2023/12/09 00:44:48;;;;;;;29.93;8.37;;;7.90;99.90;;;;;;5052331;28;20496;-79
2023/12/09 00:47:14;;;;;;;28.73;9.80;;;7.90;99.90;;;;;;5035079;28;20032;-80
2023/12/09 00:49:39;;;;;;;26.00;8.20;;;7.90;99.90;;;;;;5034896;28;20029;-79
2023/12/09 00:52:05;;;;;;;31.53;8.40;;;7.90;99.90;;;;;;5052862;28;20029;-80
2023/12/09 00:54:30;;;;;;;25.07;9.77;;;7.90;99.90;;;;;;5034872;28;20369;-79
2023/12/09 00:56:56;;;;;;;29.40;7.93;;;7.90;99.90;;;;;;5052630;28;20060;-79
2023/12/09 00:59:22;;;;;;;28.40;8.47;;;7.90;99.90;;;;;;5052541;28;20122;-80
2023/12/09 01:01:47;;;;;;;24.40;7.23;;;7.90;99.90;;;;;;5034945;28;20043;-79
2023/12/09 01:04:13;;;;;;;27.27;8.27;;;7.80;99.90;;;;;;5034891;28;20033;-80
2023/12/09 01:06:39;;;;;;;24.23;7.87;;;7.80;99.90;;;;;;5034835;28;20079;-79
2023/12/09 01:09:04;;;;;;;22.43;7.20;;;7.80;99.90;;;;;;5052432;28;20072;-80
2023/12/09 01:11:30;;;;;;;33.87;9.73;;;7.80;99.90;;;;;;5034784;28;20033;-79
2023/12/09 01:13:55;;;;;;;32.50;9.00;;;7.80;99.90;;;;;;5052402;28;20466;-79
2023/12/09 01:16:21;;;;;;;23.70;7.60;;;7.80;99.90;;;;;;5052367;28;20029;-79
2023/12/09 01:18:47;;;;;;;23.90;7.07;;;7.80;99.90;;;;;;5034724;28;20043;-79
2023/12/09 01:21:12;;;;;;;25.90;8.07;;;7.70;99.90;;;;;;5053746;28;20497;-79
2023/12/09 01:23:39;;;;;;;26.30;7.00;;;7.70;99.90;;;;;;5038647;28;20029;-79
2023/12/09 01:26:05;;;;;;;31.87;8.13;;;7.70;99.90;;;;;;5038530;28;20029;-80
2023/12/09 01:28:31;;;;;;;24.67;7.30;;;7.70;99.90;;;;;;5056177;28;20393;-79
2023/12/09 01:30:57;;;;;;;21.17;6.33;;;7.70;99.90;;;;;;5056101;28;20039;-79
2023/12/09 01:33:22;;;;;;;26.23;7.10;;;7.70;99.90;;;;;;5038241;28;20139;-79
2023/12/09 01:35:48;;;;;;;25.63;8.23;;;7.70;99.90;;;;;;5056240;28;20040;-79
2023/12/09 01:38:13;;;;;;;25.90;6.97;;;7.70;99.90;;;;;;5038477;28;20084;-79
2023/12/09 01:40:39;;;;;;;32.50;8.27;;;7.60;99.90;;;;;;5056415;28;20029;-79
2023/12/09 01:43:11;;;;;;;18.50;6.53;;;7.60;99.90;;;;;;5055443;28;20029;-79
2023/12/09 01:45:36;;;;;;;20.57;6.70;;;7.60;99.90;;;;;;5038267;28;20098;-79
2023/12/09 01:48:04;;;;;;;25.90;7.00;;;7.60;99.90;;;;;;5056005;28;20037;-79
2023/12/09 01:50:30;;;;;;;24.97;8.13;;;7.60;99.90;;;;;;5038025;28;20068;-79
2023/12/09 01:52:57;;;;;;;32.97;8.43;;;7.60;99.90;;;;;;5056043;28;20029;-79
2023/12/09 01:55:23;;;;;;;22.13;7.73;;;7.60;99.90;;;;;;5038011;28;20135;-79
2023/12/09 01:57:51;;;;;;;25.17;7.70;;;7.60;99.90;;;;;;5055572;28;20571;-79
2023/12/09 02:00:18;;;;;;;24.50;7.53;;;7.60;99.90;;;;;;5038186;28;20044;-79
2023/12/09 02:02:45;;;;;;;23.83;6.83;;;7.50;99.90;;;;;;5037881;28;20044;-79
2023/12/09 02:05:11;;;;;;;21.80;7.60;;;7.50;99.90;;;;;;5055491;28;20029;-79
2023/12/09 02:07:37;;;;;;;29.13;7.97;;;7.50;99.90;;;;;;5037780;28;20167;-80
2023/12/09 02:10:03;;;;;;;23.67;7.30;;;7.50;99.90;;;;;;5055535;28;20111;-79
2023/12/09 02:12:37;;;;;;;24.53;7.50;;;7.50;99.90;;;;;;5055160;28;20029;-79
2023/12/09 02:15:18;;;;;;;25.90;7.82;;;7.50;99.90;;;;;;5037657;28;20033;-79
2023/12/09 02:18:05;;;;;;;26.63;8.40;;;7.50;99.90;;;;;;5055580;28;20090;-79
2023/12/09 02:20:31;;;;;;;28.17;8.53;;;7.50;99.90;;;;;;5037264;28;20033;-79
2023/12/09 02:23:07;;;;;;;26.53;8.40;;;7.50;99.90;;;;;;5055408;28;20037;-79
2023/12/09 02:25:34;;;;;;;29.17;8.50;;;7.50;99.90;;;;;;5037278;28;20033;-79
2023/12/09 02:28:04;;;;;;;24.57;7.77;;;7.50;99.90;;;;;;5055101;28;20481;-79
2023/12/09 02:30:44;;;;;;;34.33;9.20;;;7.50;99.90;;;;;;5037371;28;20121;-79
2023/12/09 02:33:14;;;;;;;25.37;8.53;;;7.50;99.90;;;;;;5053574;28;20060;-79
2023/12/09 02:35:42;;;;;;;22.30;8.13;;;7.50;99.90;;;;;;5037309;28;20029;-79
2023/12/09 02:38:11;;;;;;;25.97;8.77;;;7.50;99.90;;;;;;5055076;28;20149;-79
2023/12/09 02:40:38;;;;;;;31.47;8.83;;;7.50;99.90;;;;;;5036349;28;20095;-79
2023/12/09 02:43:04;;;;;;;25.60;8.23;;;7.50;99.90;;;;;;5036895;28;20059;-79
2023/12/09 02:45:30;;;;;;;27.30;7.80;;;7.40;99.90;;;;;;5054889;28;20037;-79
2023/12/09 02:47:56;;;;;;;35.23;8.50;;;7.40;99.90;;;;;;5036979;28;20079;-79
2023/12/09 02:50:21;;;;;;;25.23;8.57;;;7.40;99.90;;;;;;5054847;28;20420;-79
2023/12/09 02:52:47;;;;;;;30.03;7.90;;;7.30;99.90;;;;;;5036963;28;20036;-79
2023/12/09 02:55:13;;;;;;;23.97;8.93;;;7.40;99.90;;;;;;5054313;28;20041;-79
2023/12/09 02:57:38;;;;;;;33.47;10.43;;;7.30;99.90;;;;;;5054570;28;20037;-79
2023/12/09 03:00:05;;;;;;;28.50;8.00;;;7.30;99.90;;;;;;5036784;28;20059;-79
2023/12/09 03:02:31;;;;;;;25.90;9.10;;;7.30;99.90;;;;;;5036723;28;20079;-79
2023/12/09 03:04:58;;;;;;;27.00;9.23;;;7.20;99.90;;;;;;5036457;28;20073;-79
2023/12/09 03:07:24;;;;;;;24.13;8.07;;;7.30;99.90;;;;;;5054660;28;20497;-79
2023/12/09 03:09:49;;;;;;;28.67;8.50;;;7.20;99.90;;;;;;5054259;28;20037;-79
2023/12/09 03:12:15;;;;;;;23.27;8.20;;;7.20;99.90;;;;;;5036612;28;20513;-79
2023/12/09 03:14:41;;;;;;;26.00;8.00;;;7.30;99.90;;;;;;5054433;28;20037;-79
2023/12/09 03:17:07;;;;;;;26.77;7.43;;;7.20;99.90;;;;;;5054351;28;20037;-79
2023/12/09 03:22:09;;;;;;;23.27;8.63;;;7.10;99.90;;;;;;4277069;22;20057;31
2023/12/09 03:24:35;;;;;;;25.10;8.50;;;7.10;99.90;;;;;;5018448;28;20049;-80
2023/12/09 03:27:00;;;;;;;27.03;8.03;;;7.10;99.90;;;;;;4997290;28;20111;-79
2023/12/09 03:29:26;;;;;;;20.23;7.80;;;7.10;99.90;;;;;;5033163;28;20254;-79
2023/12/09 03:31:52;;;;;;;24.67;8.10;;;7.10;99.90;;;;;;5032550;28;20495;-79
2023/12/09 03:34:17;;;;;;;26.57;8.23;;;7.00;99.90;;;;;;5022298;28;20022;-78
2023/12/09 03:36:43;;;;;;;24.00;9.00;;;7.00;99.90;;;;;;5014011;28;20123;-79
2023/12/09 03:39:09;;;;;;;22.80;8.17;;;7.00;99.90;;;;;;5030348;28;20504;-79
2023/12/09 03:41:35;;;;;;;33.13;8.40;;;7.00;99.90;;;;;;5033919;28;20033;-79
2023/12/09 03:44:01;;;;;;;25.73;7.30;;;7.00;99.90;;;;;;5032779;28;20037;-79
2023/12/09 03:46:27;;;;;;;28.77;8.43;;;7.00;99.90;;;;;;5033930;28;20473;-79
2023/12/09 03:48:53;;;;;;;27.03;7.97;;;7.00;99.90;;;;;;5034136;28;20030;-78
2023/12/09 03:51:18;;;;;;;24.87;7.60;;;6.90;99.90;;;;;;5033581;28;20065;-79
2023/12/09 03:53:44;;;;;;;27.33;8.43;;;6.90;99.90;;;;;;5033966;28;20080;-79
2023/12/09 03:56:13;;;;;;;26.50;7.40;;;6.90;99.90;;;;;;5048225;28;20026;-79
2023/12/09 03:58:38;;;;;;;27.93;7.83;;;6.90;99.90;;;;;;5031243;28;20034;-80
2023/12/09 04:01:04;;;;;;;28.87;7.17;;;6.90;99.90;;;;;;5028969;28;20040;-79
2023/12/09 04:03:30;;;;;;;21.03;7.20;;;6.90;99.90;;;;;;5012436;28;20034;-79
2023/12/09 04:05:56;;;;;;;27.47;7.07;;;6.90;99.90;;;;;;5012563;28;20109;-79
2023/12/09 04:08:22;;;;;;;24.30;8.53;;;6.90;99.90;;;;;;5013983;28;20426;-79
2023/12/09 04:10:47;;;;;;;23.47;8.47;;;6.90;99.90;;;;;;5013840;28;20524;-79
2023/12/09 04:13:13;;;;;;;29.60;6.97;;;6.90;99.90;;;;;;5013764;28;20106;-79
2023/12/09 04:15:39;;;;;;;32.70;7.33;;;7.00;99.90;;;;;;5013981;28;20038;-79
2023/12/09 04:18:05;;;;;;;23.87;7.13;;;7.00;99.90;;;;;;5013444;28;20034;-79
2023/12/09 04:20:31;;;;;;;28.57;7.87;;;7.00;99.90;;;;;;5013531;28;20030;-79
2023/12/09 04:22:56;;;;;;;24.97;7.30;;;7.00;99.90;;;;;;5013324;28;20413;-79
2023/12/09 04:25:23;;;;;;;30.27;7.53;;;7.00;99.90;;;;;;5013589;28;20034;-79
2023/12/09 04:27:49;;;;;;;22.53;6.67;;;7.00;99.90;;;;;;5014500;28;20038;-79
2023/12/09 04:30:15;;;;;;;28.43;7.03;;;7.00;99.90;;;;;;5032281;28;20496;-79
2023/12/09 04:32:41;;;;;;;20.20;6.33;;;7.00;99.90;;;;;;5032376;28;20396;-78
2023/12/09 04:35:08;;;;;;;29.23;8.50;;;7.00;99.90;;;;;;5033355;28;20465;-79
2023/12/09 04:37:34;;;;;;;22.40;6.40;;;7.00;99.90;;;;;;5032035;28;20473;-79
2023/12/09 04:40:00;;;;;;;29.17;6.97;;;7.00;99.90;;;;;;5033234;28;20053;-79
2023/12/09 04:42:27;;;;;;;31.33;7.93;;;7.00;99.90;;;;;;5033043;28;20486;-79
2023/12/09 04:44:52;;;;;;;24.00;6.20;;;7.00;99.90;;;;;;5033102;28;20033;-79
2023/12/09 04:47:18;;;;;;;24.90;6.47;;;6.90;99.90;;;;;;5031738;28;20124;-79
2023/12/09 04:49:44;;;;;;;20.77;6.43;;;7.00;99.90;;;;;;5031387;28;20477;-80
2023/12/09 04:52:09;;;;;;;18.07;6.67;;;6.90;99.90;;;;;;5033079;28;20083;-79
2023/12/09 04:54:35;;;;;;;27.37;6.53;;;7.00;99.90;;;;;;5033084;28;20025;-79
2023/12/09 04:57:01;;;;;;;18.53;5.33;;;6.90;99.90;;;;;;5035535;28;20491;-79
2023/12/09 04:59:26;;;;;;;26.23;5.60;;;6.90;99.90;;;;;;5036100;28;20032;-79
2023/12/09 05:01:52;;;;;;;26.00;5.97;;;7.00;99.90;;;;;;5035742;28;20037;-79
2023/12/09 05:04:17;;;;;;;24.73;7.00;;;6.90;99.90;;;;;;5036913;28;20022;-79
2023/12/09 05:06:43;;;;;;;19.00;6.57;;;6.90;99.90;;;;;;5037044;28;20069;-79
2023/12/09 05:09:10;;;;;;;19.87;5.50;;;6.90;99.90;;;;;;5035506;28;20119;-79
2023/12/09 05:11:36;;;;;;;20.77;6.57;;;7.00;99.90;;;;;;5036924;28;20552;-79
2023/12/09 05:14:02;;;;;;;27.70;6.63;;;7.00;99.90;;;;;;5036646;28;20115;-80
2023/12/09 05:16:28;;;;;;;23.90;6.57;;;6.90;99.90;;;;;;5036868;28;20396;-79
2023/12/09 05:18:54;;;;;;;28.33;7.17;;;7.00;99.90;;;;;;5036530;28;20037;-79
2023/12/09 05:21:20;;;;;;;24.87;6.53;;;7.00;99.90;;;;;;5036359;28;20041;-79
2023/12/09 05:23:46;;;;;;;29.47;7.37;;;7.00;99.90;;;;;;5052012;28;20140;-79
2023/12/09 05:26:23;;;;;;;21.20;6.93;;;7.00;99.90;;;;;;5036690;28;20113;-79
2023/12/09 05:28:50;;;;;;;22.53;6.07;;;7.00;99.90;;;;;;5036649;28;20053;-79
2023/12/09 05:31:16;;;;;;;29.43;7.40;;;7.00;99.90;;;;;;5052026;28;20408;-79
2023/12/09 05:33:42;;;;;;;24.00;6.43;;;7.00;99.90;;;;;;5034927;28;20033;-79
2023/12/09 05:36:08;;;;;;;22.57;6.40;;;6.90;99.90;;;;;;5036179;28;20469;-79
2023/12/09 05:38:33;;;;;;;23.07;6.47;;;6.90;99.90;;;;;;5051727;28;20036;-79
2023/12/09 05:40:59;;;;;;;25.80;7.27;;;6.90;99.90;;;;;;5036201;28;20026;-79
2023/12/09 05:43:25;;;;;;;27.87;6.50;;;6.90;99.90;;;;;;5036162;28;20033;-79
2023/12/09 05:45:51;;;;;;;21.73;5.60;;;6.90;99.90;;;;;;5051530;28;20504;-79
2023/12/09 05:48:17;;;;;;;22.10;5.30;;;6.90;99.90;;;;;;5036047;28;20033;-79
2023/12/09 05:50:43;;;;;;;17.07;4.90;;;7.00;99.90;;;;;;5036128;28;20037;-78
2023/12/09 05:53:09;;;;;;;32.67;7.10;;;6.90;99.90;;;;;;5036632;28;20049;-79
2023/12/09 05:55:35;;;;;;;21.03;7.23;;;6.90;99.90;;;;;;5036457;28;20113;-79
2023/12/09 05:58:01;;;;;;;22.83;6.37;;;6.90;99.90;;;;;;5018086;28;20503;-79
2023/12/09 06:00:27;;;;;;;19.93;6.57;;;6.90;99.90;;;;;;5018240;28;20029;-79
2023/12/09 06:02:52;;;;;;;17.77;4.60;;;6.90;99.90;;;;;;5018102;28;20489;-79
2023/12/09 06:05:18;;;;;;;22.73;5.57;;;6.90;99.90;;;;;;5035953;28;20041;-79
2023/12/09 06:07:43;;;;;;;24.90;5.80;;;6.90;99.90;;;;;;5035359;28;20065;-78
2023/12/09 06:10:09;;;;;;;25.37;6.17;;;6.90;99.90;;;;;;5035815;28;20507;-79
2023/12/09 06:12:35;;;;;;;22.77;5.97;;;6.90;99.90;;;;;;5035908;28;20091;-80
2023/12/09 06:15:01;;;;;;;26.00;8.07;;;6.90;99.90;;;;;;5035698;28;20504;-79
2023/12/09 06:17:26;;;;;;;17.93;5.17;;;6.90;99.90;;;;;;5019509;28;20484;-79
2023/12/09 06:19:52;;;;;;;26.60;6.67;;;6.90;99.90;;;;;;5035656;28;20074;-79
2023/12/09 06:22:18;;;;;;;20.63;5.87;;;6.90;99.90;;;;;;5017768;28;20441;-79
2023/12/09 06:24:44;;;;;;;24.57;5.40;;;6.90;99.90;;;;;;5035133;28;20120;-80
2023/12/09 06:27:10;;;;;;;30.07;6.77;;;6.90;99.90;;;;;;5034125;28;20021;-79
2023/12/09 06:29:37;;;;;;;23.10;6.03;;;6.90;99.90;;;;;;5035349;28;20037;-78
2023/12/09 06:32:03;;;;;;;21.50;5.63;;;6.90;99.90;;;;;;5035056;28;20104;-79
2023/12/09 06:34:29;;;;;;;26.40;5.67;;;6.90;99.90;;;;;;5035285;28;20036;-79
2023/12/09 06:36:54;;;;;;;20.67;5.00;;;6.90;99.90;;;;;;5034775;28;20491;-79
2023/12/09 06:39:20;;;;;;;23.40;5.50;;;6.90;99.90;;;;;;5035310;28;20033;-79
2023/12/09 06:41:46;;;;;;;19.60;5.37;;;6.90;99.90;;;;;;5033560;28;20037;-79
2023/12/09 06:44:11;;;;;;;27.13;5.80;;;6.90;99.90;;;;;;5033530;28;20037;-79
2023/12/09 06:46:40;;;;;;;25.07;5.13;;;6.90;99.90;;;;;;5034573;28;20034;-79
2023/12/09 06:49:07;;;;;;;30.67;6.00;;;6.90;99.90;;;;;;5034211;28;20486;-79
2023/12/09 06:51:33;;;;;;;26.00;6.10;;;6.90;99.90;;;;;;5034222;28;20496;-79
2023/12/09 06:54:00;;;;;;;17.40;5.07;;;7.00;99.90;;;;;;5033947;28;20033;-80
2023/12/09 06:56:26;;;;;;;19.40;7.27;;;7.00;99.90;;;;;;5016381;28;20021;-81
2023/12/09 06:58:52;;;;;;;23.23;4.83;;;7.00;99.90;;;;;;5038382;28;20036;-81
2023/12/09 07:01:22;;;;;;;22.00;5.27;;;7.00;99.90;;;;;;5043444;28;20542;-80
2023/12/09 07:03:49;;;;;;;26.63;5.23;;;7.00;99.90;;;;;;5041128;28;20069;-80
2023/12/09 07:06:21;;;;;;;18.77;5.77;;;7.00;99.90;;;;;;5040147;28;20025;-80
2023/12/09 07:08:47;;;;;;;25.37;5.20;;;7.00;99.90;;;;;;5042223;28;20033;-80
2023/12/09 07:11:12;;;;;;;24.60;5.70;;;7.00;99.90;;;;;;5043763;28;20029;-80
2023/12/09 07:13:40;;;;;;;23.90;5.47;;;7.00;99.90;;;;;;5038437;28;20397;-80
2023/12/09 07:16:09;;;;;;;28.87;5.83;;;7.10;99.90;;;;;;5034585;28;20105;-80
2023/12/09 07:18:35;;;;;;;18.73;4.30;;;7.10;99.90;;;;;;5033800;28;20509;-81
2023/12/09 07:21:01;;;;;;;20.80;5.27;;;7.10;99.90;;;;;;5048916;28;20022;-81
2023/12/09 07:23:26;;;;;;;17.90;5.17;;;7.10;99.90;;;;;;5034263;28;20485;-80
2023/12/09 07:25:52;;;;;;;15.53;4.77;;;7.10;99.90;;;;;;5016693;28;20033;-80
2023/12/09 07:28:18;;;;;;;25.17;5.60;;;7.10;99.90;;;;;;5049508;28;20053;-80
2023/12/09 07:30:43;;;;;;;17.50;4.00;;;7.10;99.90;;;;;;5033089;28;20075;-81
2023/12/09 07:33:09;;;;;;;20.00;4.33;;;7.20;99.90;;;;;;5033325;28;20042;-80
2023/12/09 07:35:34;;;;;;;19.77;4.90;;;7.20;99.90;;;;;;5033954;28;20049;-80
2023/12/09 07:38:00;;;;;;;25.67;4.73;;;7.20;99.90;;;;;;5034186;28;20029;-81
2023/12/09 07:40:26;;;;;;;20.20;4.37;;;7.20;99.90;;;;;;5034363;28;20092;-81
2023/12/09 07:42:51;;;;;;;23.60;5.30;;;7.20;99.90;;;;;;5037119;28;20041;-81
2023/12/09 07:45:17;;;;;;;18.40;4.63;;;7.20;99.90;;;;;;5033983;28;20043;-81
2023/12/09 07:47:42;;;;;;;18.80;4.93;;;7.20;99.90;;;;;;5032836;28;20037;-81
2023/12/09 07:50:08;;;;;;;23.30;5.03;;;7.20;99.90;;;;;;5034037;28;20088;-81
2023/12/09 07:52:35;;;;;;;17.43;4.10;;;7.20;99.90;;;;;;5033531;28;20113;-80
2023/12/09 07:55:00;;;;;;;19.53;5.20;;;7.30;99.90;;;;;;5035422;28;20059;-80
2023/12/09 07:57:26;;;;;;;25.93;5.07;;;7.30;99.90;;;;;;5048794;28;20026;-81
2023/12/09 07:59:53;;;;;;;26.23;4.40;;;7.30;99.90;;;;;;5033320;28;20056;-82
2023/12/09 08:02:18;;;;;;;22.07;4.40;;;7.30;99.90;;;;;;5034123;28;20584;-83
2023/12/09 08:04:44;;;;;;;19.80;4.80;;;7.40;99.90;;;;;;5031357;28;20112;-83
2023/12/09 08:07:10;;;;;;;21.03;4.40;;;7.40;99.90;;;;;;5033771;28;20104;-82
2023/12/09 08:09:36;;;;;;;19.33;4.33;;;7.40;99.90;;;;;;5032696;28;20037;-82
2023/12/09 08:12:01;;;;;;;20.97;3.73;;;7.40;99.90;;;;;;5033469;28;20029;-82
2023/12/09 08:14:27;;;;;;;18.17;4.33;;;7.40;99.90;;;;;;5033457;28;20412;-82
2023/12/09 08:16:53;;;;;;;21.43;4.83;;;7.50;99.90;;;;;;5033391;28;20029;-82
2023/12/09 08:19:18;;;;;;;17.63;3.97;;;7.50;99.90;;;;;;5033153;28;20033;-82
2023/12/09 08:21:44;;;;;;;18.87;4.33;;;7.50;99.90;;;;;;5032339;28;20089;-83
2023/12/09 08:24:09;;;;;;;13.00;3.63;;;7.50;99.90;;;;;;5033843;28;20044;-83
2023/12/09 08:26:37;;;;;;;16.60;4.47;;;7.50;99.90;;;;;;5033089;28;20052;-83
2023/12/09 08:29:04;;;;;;;20.30;3.40;;;7.60;99.90;;;;;;5032090;28;20059;-83
2023/12/09 08:31:30;;;;;;;18.90;5.10;;;7.60;99.90;;;;;;5033482;28;20561;-82
2023/12/09 08:33:56;;;;;;;22.33;3.67;;;7.60;99.90;;;;;;5033204;28;20038;-83
2023/12/09 08:36:22;;;;;;;15.50;3.80;;;7.60;99.90;;;;;;5033083;28;20477;-81
2023/12/09 08:38:47;;;;;;;14.17;3.27;;;7.60;99.90;;;;;;5034101;28;20108;-82
2023/12/09 08:41:13;;;;;;;19.67;3.40;;;7.70;99.90;;;;;;5033563;28;20040;-80
2023/12/09 08:43:39;;;;;;;19.67;3.63;;;7.70;99.90;;;;;;5032488;28;20045;-80
2023/12/09 08:46:05;;;;;;;15.23;4.43;;;7.70;99.90;;;;;;5033085;28;20037;-80
2023/12/09 08:48:30;;;;;;;18.97;3.17;;;7.80;99.90;;;;;;5033066;28;20038;-80
2023/12/09 08:50:56;;;;;;;22.87;3.30;;;7.80;99.90;;;;;;5033124;28;20064;-79
2023/12/09 08:53:22;;;;;;;13.20;3.60;;;7.80;99.90;;;;;;5032059;28;20109;-80
2023/12/09 08:55:47;;;;;;;18.97;3.03;;;7.80;99.90;;;;;;5014703;28;20029;-81
2023/12/09 08:58:13;;;;;;;21.53;3.87;;;7.90;99.90;;;;;;5033349;28;20037;-80
2023/12/09 09:00:39;;;;;;;15.27;3.00;;;7.90;99.90;;;;;;5033953;28;20048;-81
2023/12/09 09:03:05;;;;;;;26.03;3.50;;;7.90;99.90;;;;;;5032861;28;20075;-80
2023/12/09 09:05:30;;;;;;;14.43;2.13;;;8.00;99.90;;;;;;5049074;28;20042;-79
2023/12/09 09:07:56;;;;;;;17.73;2.93;;;8.00;99.90;;;;;;5033052;28;20038;-79
2023/12/09 09:10:22;;;;;;;17.97;2.93;;;8.00;99.90;;;;;;5032659;28;20030;-79
2023/12/09 09:12:48;;;;;;;12.03;2.67;;;8.00;99.90;;;;;;5032879;28;20064;-80
2023/12/09 09:15:16;;;;;;;14.27;3.00;;;8.10;99.90;;;;;;5032810;28;20033;-77
2023/12/09 09:17:41;;;;;;;12.33;3.13;;;8.10;99.90;;;;;;5032471;28;20101;-79
2023/12/09 09:20:07;;;;;;;15.50;3.37;;;8.00;99.90;;;;;;5032690;28;20064;-79
2023/12/09 09:22:33;;;;;;;18.70;2.93;;;8.10;99.90;;;;;;5031177;28;20025;-78
2023/12/09 09:24:59;;;;;;;15.97;2.90;;;8.10;99.90;;;;;;5031383;28;20095;-79
2023/12/09 09:27:25;;;;;;;16.73;2.77;;;8.10;99.90;;;;;;5048128;28;20022;-79
2023/12/09 09:29:51;;;;;;;19.33;3.37;;;8.20;99.90;;;;;;5032525;28;20469;-79
2023/12/09 09:32:17;;;;;;;12.30;2.83;;;8.10;99.90;;;;;;5032593;28;20042;-80
2023/12/09 09:34:43;;;;;;;16.10;3.20;;;8.20;99.90;;;;;;5032695;28;20036;-79
2023/12/09 09:37:09;;;;;;;13.57;2.60;;;8.10;99.90;;;;;;5032365;28;20405;-79
2023/12/09 09:39:35;;;;;;;13.00;2.50;;;8.20;99.90;;;;;;5032254;28;20529;-79
2023/12/09 09:42:13;;;;;;;14.53;2.47;;;8.20;99.90;;;;;;5033389;28;20120;-79
2023/12/09 09:44:57;;;;;;;15.17;2.57;;;8.20;99.90;;;;;;5036720;28;20057;-79
2023/12/09 09:47:23;;;;;;;11.33;2.70;;;8.20;99.90;;;;;;5036174;28;20087;-78
2023/12/09 09:49:51;;;;;;;14.97;2.87;;;8.20;99.90;;;;;;5036321;28;20026;-79
2023/12/09 09:52:20;;;;;;;12.53;2.10;;;8.30;99.90;;;;;;5035847;28;20033;-79
2023/12/09 09:54:47;;;;;;;15.53;2.33;;;8.30;99.90;;;;;;5035945;28;20056;-79
2023/12/09 09:57:14;;;;;;;15.83;3.07;;;8.30;99.90;;;;;;5035080;28;20033;-78
2023/12/09 09:59:39;;;;;;;14.60;3.27;;;8.40;99.90;;;;;;5036113;28;20511;-80
2023/12/09 10:02:07;;;;;;;13.03;2.50;;;8.40;99.90;;;;;;5034769;28;20037;-78
2023/12/09 10:04:32;;;;;;;11.33;2.00;;;8.50;99.90;;;;;;5035470;28;20080;-79
2023/12/09 10:06:59;;;;;;;10.33;2.20;;;8.50;99.90;;;;;;5051172;28;20029;-79
2023/12/09 10:09:25;;;;;;;10.27;1.70;;;8.60;99.90;;;;;;5034229;28;20030;-79
2023/12/09 10:11:50;;;;;;;9.33;1.67;;;8.80;99.90;;;;;;5035864;28;20389;-79
2023/12/09 10:14:17;;;;;;;11.10;2.33;;;8.80;99.90;;;;;;5034462;28;20121;-78
2023/12/09 10:16:45;;;;;;;10.33;2.03;;;8.90;99.90;;;;;;5051336;28;20033;-80
2023/12/09 10:19:13;;;;;;;10.73;2.20;;;9.00;99.90;;;;;;5035587;28;20100;-78
2023/12/09 10:21:39;;;;;;;13.13;1.90;;;9.00;99.90;;;;;;5034110;28;20489;-79
2023/12/09 10:24:05;;;;;;;15.70;2.40;;;9.00;99.90;;;;;;5034552;28;20056;-79
2023/12/09 10:26:30;;;;;;;13.27;1.93;;;9.00;99.90;;;;;;5049896;28;20041;-79
2023/12/09 10:28:56;;;;;;;14.87;2.13;;;9.00;99.90;;;;;;5034295;28;20037;-78
2023/12/09 10:31:22;;;;;;;8.73;2.00;;;8.90;99.90;;;;;;5034047;28;20540;-78
2023/12/09 10:33:49;;;;;;;13.80;2.30;;;9.00;99.90;;;;;;5049597;28;20490;-79
2023/12/09 10:36:14;;;;;;;13.50;2.27;;;9.10;99.90;;;;;;5034128;28;20092;-78
2023/12/09 10:38:43;;;;;;;8.57;1.60;;;9.10;99.90;;;;;;5033893;28;20489;-78
2023/12/09 10:41:12;;;;;;;9.63;1.50;;;9.20;99.90;;;;;;5032715;28;20029;-78
2023/12/09 10:43:39;;;;;;;8.70;2.07;;;9.20;99.90;;;;;;5033984;28;20026;-78
2023/12/09 10:46:04;;;;;;;8.93;1.80;;;9.20;99.90;;;;;;5033795;28;20670;-79
2023/12/09 10:48:31;;;;;;;11.63;1.90;;;9.20;99.90;;;;;;5033912;28;20038;-79
2023/12/09 10:50:57;;;;;;;11.27;1.80;;;9.20;99.90;;;;;;5033764;28;20087;-78
2023/12/09 10:53:22;;;;;;;13.43;1.63;;;9.20;99.90;;;;;;5032891;28;20116;-78
2023/12/09 10:55:49;;;;;;;15.10;1.60;;;9.30;99.90;;;;;;5033798;28;20044;-79
2023/12/09 10:58:15;;;;;;;8.87;1.40;;;9.30;99.90;;;;;;5033507;28;20037;-79
2023/12/09 11:00:41;;;;;;;7.57;1.50;;;9.30;99.90;;;;;;5034258;28;20037;-79
2023/12/09 11:03:08;;;;;;;10.10;1.63;;;9.30;99.90;;;;;;5033656;28;20527;-78
2023/12/09 11:05:44;;;;;;;7.70;1.60;;;9.30;99.90;;;;;;5033620;28;20038;-79
2023/12/09 11:08:12;;;;;;;9.90;1.80;;;9.30;99.90;;;;;;5033653;28;20033;-79
2023/12/09 11:10:38;;;;;;;7.53;1.40;;;9.30;99.90;;;;;;5032186;28;20385;-79
2023/12/09 11:13:04;;;;;;;13.30;2.50;;;9.30;99.90;;;;;;5033611;28;20086;-79
2023/12/09 11:15:31;;;;;;;7.83;1.60;;;9.30;99.90;;;;;;5033633;28;20488;-79
2023/12/09 11:18:08;;;;;;;9.97;1.60;;;9.20;99.90;;;;;;5033717;28;20034;-78
2023/12/09 11:20:40;;;;;;;9.07;2.07;;;9.30;99.90;;;;;;5033180;28;20033;-80
2023/12/09 11:23:11;;;;;;;13.67;2.00;;;9.20;99.90;;;;;;4982231;28;1474820;-79
2023/12/09 11:25:41;;;;;;;11.63;1.63;;;9.20;99.90;;;;;;5049586;28;20041;-79
2023/12/09 11:28:07;;;;;;;10.57;2.30;;;9.20;99.90;;;;;;5034489;28;20504;-79
2023/12/09 11:30:36;;;;;;;9.80;2.00;;;9.20;99.90;;;;;;5049477;28;20034;-80
2023/12/09 11:33:03;;;;;;;9.83;2.27;;;9.20;99.90;;;;;;5034191;28;20026;-79
2023/12/09 11:35:29;;;;;;;11.43;2.50;;;9.20;99.90;;;;;;5049404;28;20037;-79
2023/12/09 11:37:58;;;;;;;10.70;2.50;;;9.20;99.90;;;;;;5034029;28;20477;-78
2023/12/09 11:40:26;;;;;;;15.10;1.80;;;9.10;99.90;;;;;;5034236;28;20026;-79
2023/12/09 11:42:53;;;;;;;7.40;1.90;;;9.10;99.90;;;;;;5033802;28;20034;-80
2023/12/09 11:45:21;;;;;;;6.47;1.40;;;9.10;99.90;;;;;;5033977;28;20025;-80
2023/12/09 11:47:47;;;;;;;9.57;1.43;;;9.10;99.90;;;;;;5033938;28;20485;-78
2023/12/09 11:50:16;;;;;;;10.83;1.67;;;9.10;99.90;;;;;;5033534;28;20049;-79
2023/12/09 11:52:43;;;;;;;7.60;1.57;;;9.10;99.90;;;;;;5033858;28;20052;-79
2023/12/09 11:55:12;;;;;;;8.47;1.60;;;9.10;99.90;;;;;;5033768;28;20036;-79
2023/12/09 11:57:40;;;;;;;11.40;1.83;;;9.00;99.90;;;;;;5033850;28;20033;-79
2023/12/09 12:00:09;;;;;;;13.37;1.63;;;9.10;99.90;;;;;;5033481;28;20155;-79
2023/12/09 12:02:35;;;;;;;13.13;1.80;;;9.10;99.90;;;;;;5048968;28;20082;-78
2023/12/09 12:05:02;;;;;;;8.67;2.20;;;9.10;99.90;;;;;;5033170;28;20112;-78
2023/12/09 12:07:27;;;;;;;10.47;1.47;;;9.10;99.90;;;;;;5033521;28;20033;-79
2023/12/09 12:09:53;;;;;;;11.87;2.30;;;9.10;99.90;;;;;;5033026;28;20052;-79
2023/12/09 12:12:19;;;;;;;13.47;1.70;;;9.10;99.90;;;;;;5015552;28;20383;-79
2023/12/09 12:14:46;;;;;;;9.90;1.60;;;9.20;99.90;;;;;;5033413;28;20026;-79
2023/12/09 12:17:12;;;;;;;7.20;1.33;;;9.20;99.90;;;;;;5033489;28;20111;-79
2023/12/09 12:19:39;;;;;;;13.07;1.90;;;9.20;99.90;;;;;;5033239;28;20065;-79
2023/12/09 12:22:05;;;;;;;10.90;1.70;;;9.20;99.90;;;;;;5033177;28;20099;-79
2023/12/09 12:24:43;;;;;;;12.67;1.67;;;9.30;99.90;;;;;;5032916;28;20053;-80
2023/12/09 12:27:09;;;;;;;10.60;1.63;;;9.30;99.90;;;;;;5033568;28;20041;-79
2023/12/09 12:29:37;;;;;;;9.47;1.67;;;9.30;99.90;;;;;;5033191;28;20131;-79
2023/12/09 12:32:05;;;;;;;10.37;1.30;;;9.40;99.90;;;;;;5033019;28;20040;-78
2023/12/09 20:30:33;;;;;;;22.77;3.60;;;9.60;99.90;;;;;;522644;26;20416;-80
2023/12/09 20:33:00;;;;;;;27.37;3.57;;;9.60;99.90;;;;;;5099026;28;20056;-81
2023/12/09 20:35:25;;;;;;;24.23;3.87;;;9.60;99.90;;;;;;5092800;28;20032;-78
2023/12/09 20:37:51;;;;;;;23.90;3.37;;;9.60;99.90;;;;;;5113199;28;20039;-80
2023/12/09 20:40:17;;;;;;;27.93;4.20;;;9.60;99.90;;;;;;5094690;28;20463;-80
2023/12/09 20:42:43;;;;;;;24.23;4.30;;;9.60;99.90;;;;;;5081730;28;20036;-78